sensor_id;sensor_type;location;lat;lon;timestamp;P1;durP1;ratioP1;P2;durP2;ratioP2
3095;SDS011;1558;42.700;23.360;2022-07-24T00:01:14;14.70;;;10.25;;
3095;SDS011;1558;42.700;23.360;2022-07-24T00:03:43;13.77;;;10.50;;
3095;SDS011;1558;42.700;23.360;2022-07-24T00:06:11;13.52;;;10.43;;
3095;SDS011;1558;42.700;23.360;2022-07-24T00:08:39;13.98;;;9.55;;
3095;SDS011;1558;42.700;23.360;2022-07-24T00:11:07;13.35;;;10.13;;
3095;SDS011;1558;42.700;23.360;2022-07-24T00:13:35;15.77;;;9.68;;
3095;SDS011;1558;42.700;23.360;2022-07-24T00:16:04;13.88;;;11.07;;
3095;SDS011;1558;42.700;23.360;2022-07-24T00:18:32;12.95;;;10.10;;
3095;SDS011;1558;42.700;23.360;2022-07-24T00:21:02;11.30;;;9.90;;
3095;SDS011;1558;42.700;23.360;2022-07-24T00:23:30;13.13;;;10.40;;
3095;SDS011;1558;42.700;23.360;2022-07-24T00:25:59;13.43;;;10.00;;
3095;SDS011;1558;42.700;23.360;2022-07-24T00:28:27;21.63;;;10.93;;
3095;SDS011;1558;42.700;23.360;2022-07-24T00:30:56;12.52;;;10.68;;
3095;SDS011;1558;42.700;23.360;2022-07-24T00:33:24;14.57;;;10.38;;
3095;SDS011;1558;42.700;23.360;2022-07-24T00:35:52;11.88;;;10.65;;
3095;SDS011;1558;42.700;23.360;2022-07-24T00:38:21;13.55;;;10.27;;
3095;SDS011;1558;42.700;23.360;2022-07-24T00:40:49;13.57;;;10.35;;
3095;SDS011;1558;42.700;23.360;2022-07-24T00:43:17;14.77;;;10.35;;
3095;SDS011;1558;42.700;23.360;2022-07-24T00:45:46;12.75;;;10.20;;
3095;SDS011;1558;42.700;23.360;2022-07-24T00:48:14;11.45;;;10.15;;
3095;SDS011;1558;42.700;23.360;2022-07-24T00:50:42;12.77;;;10.40;;
3095;SDS011;1558;42.700;23.360;2022-07-24T00:53:11;14.05;;;10.98;;
3095;SDS011;1558;42.700;23.360;2022-07-24T00:55:40;11.90;;;10.48;;
3095;SDS011;1558;42.700;23.360;2022-07-24T00:58:09;12.70;;;10.20;;
3095;SDS011;1558;42.700;23.360;2022-07-24T01:00:39;13.13;;;10.05;;
3095;SDS011;1558;42.700;23.360;2022-07-24T01:03:07;15.18;;;9.90;;
3095;SDS011;1558;42.700;23.360;2022-07-24T01:05:35;13.57;;;10.32;;
3095;SDS011;1558;42.700;23.360;2022-07-24T01:08:03;12.25;;;9.52;;
3095;SDS011;1558;42.700;23.360;2022-07-24T01:10:31;12.07;;;10.32;;
3095;SDS011;1558;42.700;23.360;2022-07-24T01:13:00;12.40;;;9.02;;
3095;SDS011;1558;42.700;23.360;2022-07-24T01:15:29;12.10;;;8.82;;
3095;SDS011;1558;42.700;23.360;2022-07-24T01:17:57;9.63;;;8.80;;
3095;SDS011;1558;42.700;23.360;2022-07-24T01:20:25;11.45;;;9.20;;
3095;SDS011;1558;42.700;23.360;2022-07-24T01:22:54;10.07;;;9.07;;
3095;SDS011;1558;42.700;23.360;2022-07-24T01:25:22;11.95;;;8.80;;
3095;SDS011;1558;42.700;23.360;2022-07-24T01:27:50;15.68;;;9.43;;
3095;SDS011;1558;42.700;23.360;2022-07-24T01:30:19;13.23;;;9.23;;
3095;SDS011;1558;42.700;23.360;2022-07-24T01:32:46;11.43;;;9.00;;
3095;SDS011;1558;42.700;23.360;2022-07-24T01:35:14;11.95;;;9.52;;
3095;SDS011;1558;42.700;23.360;2022-07-24T01:37:48;11.07;;;9.07;;
3095;SDS011;1558;42.700;23.360;2022-07-24T01:40:18;13.40;;;9.40;;
3095;SDS011;1558;42.700;23.360;2022-07-24T01:42:46;11.33;;;8.67;;
3095;SDS011;1558;42.700;23.360;2022-07-24T01:45:14;15.80;;;9.73;;
3095;SDS011;1558;42.700;23.360;2022-07-24T01:47:42;11.25;;;9.02;;
3095;SDS011;1558;42.700;23.360;2022-07-24T01:50:11;12.60;;;9.47;;
3095;SDS011;1558;42.700;23.360;2022-07-24T01:52:40;11.23;;;9.07;;
3095;SDS011;1558;42.700;23.360;2022-07-24T01:55:09;12.07;;;9.10;;
3095;SDS011;1558;42.700;23.360;2022-07-24T01:57:38;11.67;;;9.53;;
3095;SDS011;1558;42.700;23.360;2022-07-24T02:00:07;13.20;;;10.30;;
3095;SDS011;1558;42.700;23.360;2022-07-24T02:02:39;12.67;;;9.37;;
3095;SDS011;1558;42.700;23.360;2022-07-24T02:05:08;10.10;;;9.07;;
3095;SDS011;1558;42.700;23.360;2022-07-24T02:07:37;10.20;;;9.10;;
3095;SDS011;1558;42.700;23.360;2022-07-24T02:10:05;14.10;;;9.43;;
3095;SDS011;1558;42.700;23.360;2022-07-24T02:12:33;13.60;;;9.43;;
3095;SDS011;1558;42.700;23.360;2022-07-24T02:15:03;13.50;;;9.97;;
3095;SDS011;1558;42.700;23.360;2022-07-24T02:17:31;10.53;;;9.43;;
3095;SDS011;1558;42.700;23.360;2022-07-24T02:20:00;16.33;;;10.47;;
3095;SDS011;1558;42.700;23.360;2022-07-24T02:22:27;11.40;;;10.10;;
3095;SDS011;1558;42.700;23.360;2022-07-24T02:24:55;12.87;;;10.33;;
3095;SDS011;1558;42.700;23.360;2022-07-24T02:27:23;11.23;;;10.13;;
3095;SDS011;1558;42.700;23.360;2022-07-24T02:29:51;14.60;;;10.07;;
3095;SDS011;1558;42.700;23.360;2022-07-24T02:32:20;19.87;;;10.63;;
3095;SDS011;1558;42.700;23.360;2022-07-24T02:34:48;11.07;;;9.87;;
3095;SDS011;1558;42.700;23.360;2022-07-24T02:37:17;13.77;;;10.50;;
3095;SDS011;1558;42.700;23.360;2022-07-24T02:39:45;11.87;;;9.53;;
3095;SDS011;1558;42.700;23.360;2022-07-24T02:42:13;11.70;;;10.60;;
3095;SDS011;1558;42.700;23.360;2022-07-24T02:44:41;14.20;;;10.47;;
3095;SDS011;1558;42.700;23.360;2022-07-24T02:47:08;12.87;;;10.23;;
3095;SDS011;1558;42.700;23.360;2022-07-24T02:49:38;12.90;;;9.40;;
3095;SDS011;1558;42.700;23.360;2022-07-24T02:52:06;11.57;;;10.33;;
3095;SDS011;1558;42.700;23.360;2022-07-24T02:54:34;12.00;;;9.63;;
3095;SDS011;1558;42.700;23.360;2022-07-24T02:57:02;12.97;;;9.53;;
3095;SDS011;1558;42.700;23.360;2022-07-24T02:59:30;13.20;;;10.33;;
3095;SDS011;1558;42.700;23.360;2022-07-24T03:01:58;14.47;;;10.13;;
3095;SDS011;1558;42.700;23.360;2022-07-24T03:04:26;11.03;;;9.93;;
3095;SDS011;1558;42.700;23.360;2022-07-24T03:06:55;14.27;;;10.97;;
3095;SDS011;1558;42.700;23.360;2022-07-24T03:09:23;14.93;;;11.97;;
3095;SDS011;1558;42.700;23.360;2022-07-24T03:11:51;11.90;;;10.37;;
3095;SDS011;1558;42.700;23.360;2022-07-24T03:14:19;13.47;;;10.63;;
3095;SDS011;1558;42.700;23.360;2022-07-24T03:16:47;13.17;;;10.80;;
3095;SDS011;1558;42.700;23.360;2022-07-24T03:19:15;13.97;;;11.40;;
3095;SDS011;1558;42.700;23.360;2022-07-24T03:21:43;17.50;;;11.27;;
3095;SDS011;1558;42.700;23.360;2022-07-24T03:24:15;16.57;;;11.63;;
3095;SDS011;1558;42.700;23.360;2022-07-24T03:26:43;14.43;;;11.63;;
3095;SDS011;1558;42.700;23.360;2022-07-24T03:29:11;16.07;;;11.67;;
3095;SDS011;1558;42.700;23.360;2022-07-24T03:31:39;15.63;;;12.07;;
3095;SDS011;1558;42.700;23.360;2022-07-24T03:34:07;17.00;;;11.47;;
3095;SDS011;1558;42.700;23.360;2022-07-24T03:36:35;17.67;;;11.57;;
3095;SDS011;1558;42.700;23.360;2022-07-24T03:39:03;14.10;;;11.63;;
3095;SDS011;1558;42.700;23.360;2022-07-24T03:41:34;15.90;;;11.23;;
3095;SDS011;1558;42.700;23.360;2022-07-24T03:44:02;13.17;;;10.80;;
3095;SDS011;1558;42.700;23.360;2022-07-24T03:46:30;11.93;;;10.53;;
3095;SDS011;1558;42.700;23.360;2022-07-24T03:48:58;14.27;;;11.93;;
3095;SDS011;1558;42.700;23.360;2022-07-24T03:51:27;15.43;;;10.90;;
3095;SDS011;1558;42.700;23.360;2022-07-24T03:53:57;14.23;;;10.77;;
3095;SDS011;1558;42.700;23.360;2022-07-24T03:56:25;14.07;;;10.53;;
3095;SDS011;1558;42.700;23.360;2022-07-24T03:58:54;17.17;;;11.10;;
3095;SDS011;1558;42.700;23.360;2022-07-24T04:01:23;15.33;;;11.07;;
3095;SDS011;1558;42.700;23.360;2022-07-24T04:03:51;14.27;;;12.80;;
3095;SDS011;1558;42.700;23.360;2022-07-24T04:06:19;18.13;;;11.10;;
3095;SDS011;1558;42.700;23.360;2022-07-24T04:08:47;16.37;;;10.57;;
3095;SDS011;1558;42.700;23.360;2022-07-24T04:11:15;13.17;;;9.97;;
3095;SDS011;1558;42.700;23.360;2022-07-24T04:13:43;11.57;;;9.73;;
3095;SDS011;1558;42.700;23.360;2022-07-24T04:16:12;14.87;;;9.80;;
3095;SDS011;1558;42.700;23.360;2022-07-24T04:18:40;11.30;;;10.10;;
3095;SDS011;1558;42.700;23.360;2022-07-24T04:21:08;14.00;;;10.23;;
3095;SDS011;1558;42.700;23.360;2022-07-24T04:23:36;11.23;;;9.67;;
3095;SDS011;1558;42.700;23.360;2022-07-24T04:26:04;15.77;;;9.97;;
3095;SDS011;1558;42.700;23.360;2022-07-24T04:28:32;11.10;;;9.93;;
3095;SDS011;1558;42.700;23.360;2022-07-24T04:31:01;15.27;;;10.43;;
3095;SDS011;1558;42.700;23.360;2022-07-24T04:33:30;11.67;;;10.10;;
3095;SDS011;1558;42.700;23.360;2022-07-24T04:35:58;11.30;;;10.10;;
3095;SDS011;1558;42.700;23.360;2022-07-24T04:38:26;13.20;;;10.07;;
3095;SDS011;1558;42.700;23.360;2022-07-24T04:40:54;14.07;;;10.00;;
3095;SDS011;1558;42.700;23.360;2022-07-24T04:43:22;13.52;;;10.25;;
3095;SDS011;1558;42.700;23.360;2022-07-24T04:45:50;10.68;;;9.55;;
3095;SDS011;1558;42.700;23.360;2022-07-24T04:48:18;11.98;;;10.48;;
3095;SDS011;1558;42.700;23.360;2022-07-24T04:50:48;15.45;;;10.88;;
3095;SDS011;1558;42.700;23.360;2022-07-24T04:53:16;14.55;;;10.50;;
3095;SDS011;1558;42.700;23.360;2022-07-24T04:55:44;14.68;;;10.48;;
3095;SDS011;1558;42.700;23.360;2022-07-24T04:58:12;13.10;;;10.88;;
3095;SDS011;1558;42.700;23.360;2022-07-24T05:00:40;12.57;;;11.27;;
3095;SDS011;1558;42.700;23.360;2022-07-24T05:03:08;12.27;;;10.18;;
3095;SDS011;1558;42.700;23.360;2022-07-24T05:05:36;13.05;;;11.15;;
3095;SDS011;1558;42.700;23.360;2022-07-24T05:08:05;16.38;;;12.05;;
3095;SDS011;1558;42.700;23.360;2022-07-24T05:10:33;15.02;;;11.48;;
3095;SDS011;1558;42.700;23.360;2022-07-24T05:13:01;16.52;;;12.80;;
3095;SDS011;1558;42.700;23.360;2022-07-24T05:15:29;17.52;;;12.00;;
3095;SDS011;1558;42.700;23.360;2022-07-24T05:17:57;14.75;;;11.63;;
3095;SDS011;1558;42.700;23.360;2022-07-24T05:20:25;12.05;;;10.60;;
3095;SDS011;1558;42.700;23.360;2022-07-24T05:22:54;12.07;;;10.70;;
3095;SDS011;1558;42.700;23.360;2022-07-24T05:25:23;17.38;;;12.10;;
3095;SDS011;1558;42.700;23.360;2022-07-24T05:27:51;13.85;;;11.38;;
3095;SDS011;1558;42.700;23.360;2022-07-24T05:30:19;17.02;;;12.05;;
3095;SDS011;1558;42.700;23.360;2022-07-24T05:32:47;16.02;;;11.57;;
3095;SDS011;1558;42.700;23.360;2022-07-24T05:35:15;14.20;;;11.57;;
3095;SDS011;1558;42.700;23.360;2022-07-24T05:37:54;18.35;;;11.88;;
3095;SDS011;1558;42.700;23.360;2022-07-24T05:40:24;16.33;;;11.75;;
3095;SDS011;1558;42.700;23.360;2022-07-24T05:42:52;13.07;;;11.60;;
3095;SDS011;1558;42.700;23.360;2022-07-24T05:45:20;14.77;;;11.80;;
3095;SDS011;1558;42.700;23.360;2022-07-24T05:47:48;15.80;;;11.82;;
3095;SDS011;1558;42.700;23.360;2022-07-24T05:50:16;13.18;;;11.80;;
3095;SDS011;1558;42.700;23.360;2022-07-24T05:52:44;13.63;;;11.95;;
3095;SDS011;1558;42.700;23.360;2022-07-24T05:55:12;14.68;;;11.75;;
3095;SDS011;1558;42.700;23.360;2022-07-24T05:57:44;18.45;;;12.90;;
3095;SDS011;1558;42.700;23.360;2022-07-24T06:00:12;13.65;;;12.23;;
3095;SDS011;1558;42.700;23.360;2022-07-24T06:02:43;13.73;;;12.32;;
3095;SDS011;1558;42.700;23.360;2022-07-24T06:05:11;13.13;;;11.48;;
3095;SDS011;1558;42.700;23.360;2022-07-24T06:07:40;13.73;;;11.43;;
3095;SDS011;1558;42.700;23.360;2022-07-24T06:10:08;15.88;;;12.98;;
3095;SDS011;1558;42.700;23.360;2022-07-24T06:12:40;14.45;;;12.40;;
3095;SDS011;1558;42.700;23.360;2022-07-24T06:15:10;17.85;;;12.98;;
3095;SDS011;1558;42.700;23.360;2022-07-24T06:17:39;19.05;;;14.25;;
3095;SDS011;1558;42.700;23.360;2022-07-24T06:20:08;17.42;;;12.63;;
3095;SDS011;1558;42.700;23.360;2022-07-24T06:22:39;14.80;;;13.05;;
3095;SDS011;1558;42.700;23.360;2022-07-24T06:25:13;13.73;;;12.45;;
3095;SDS011;1558;42.700;23.360;2022-07-24T06:27:43;14.20;;;12.27;;
3095;SDS011;1558;42.700;23.360;2022-07-24T06:30:14;15.50;;;12.45;;
3095;SDS011;1558;42.700;23.360;2022-07-24T06:32:43;16.63;;;13.90;;
3095;SDS011;1558;42.700;23.360;2022-07-24T06:35:11;14.73;;;12.90;;
3095;SDS011;1558;42.700;23.360;2022-07-24T06:37:40;15.98;;;13.90;;
3095;SDS011;1558;42.700;23.360;2022-07-24T06:40:13;13.88;;;12.10;;
3095;SDS011;1558;42.700;23.360;2022-07-24T06:42:41;16.60;;;12.43;;
3095;SDS011;1558;42.700;23.360;2022-07-24T06:45:09;14.82;;;13.32;;
3095;SDS011;1558;42.700;23.360;2022-07-24T06:47:39;16.30;;;13.02;;
3095;SDS011;1558;42.700;23.360;2022-07-24T06:50:07;18.70;;;12.77;;
3095;SDS011;1558;42.700;23.360;2022-07-24T06:52:37;21.10;;;14.18;;
3095;SDS011;1558;42.700;23.360;2022-07-24T06:55:05;14.98;;;13.40;;
3095;SDS011;1558;42.700;23.360;2022-07-24T06:57:34;15.60;;;13.82;;
3095;SDS011;1558;42.700;23.360;2022-07-24T07:00:04;16.73;;;12.68;;
3095;SDS011;1558;42.700;23.360;2022-07-24T07:02:34;21.05;;;14.45;;
3095;SDS011;1558;42.700;23.360;2022-07-24T07:05:04;18.83;;;14.20;;
3095;SDS011;1558;42.700;23.360;2022-07-24T07:07:33;15.27;;;13.77;;
3095;SDS011;1558;42.700;23.360;2022-07-24T07:10:03;16.90;;;14.00;;
3095;SDS011;1558;42.700;23.360;2022-07-24T07:12:32;17.65;;;13.80;;
3095;SDS011;1558;42.700;23.360;2022-07-24T07:15:06;16.30;;;13.85;;
3095;SDS011;1558;42.700;23.360;2022-07-24T07:17:36;20.17;;;13.88;;
3095;SDS011;1558;42.700;23.360;2022-07-24T07:20:07;16.65;;;13.50;;
3095;SDS011;1558;42.700;23.360;2022-07-24T07:22:36;16.15;;;13.10;;
3095;SDS011;1558;42.700;23.360;2022-07-24T07:25:05;18.58;;;13.60;;
3095;SDS011;1558;42.700;23.360;2022-07-24T07:27:33;16.70;;;13.13;;
3095;SDS011;1558;42.700;23.360;2022-07-24T07:30:05;15.55;;;12.60;;
3095;SDS011;1558;42.700;23.360;2022-07-24T07:32:35;16.25;;;12.30;;
3095;SDS011;1558;42.700;23.360;2022-07-24T07:35:08;15.57;;;13.00;;
3095;SDS011;1558;42.700;23.360;2022-07-24T07:37:46;14.80;;;13.13;;
3095;SDS011;1558;42.700;23.360;2022-07-24T07:40:15;16.13;;;12.68;;
3095;SDS011;1558;42.700;23.360;2022-07-24T07:42:42;15.30;;;12.20;;
3095;SDS011;1558;42.700;23.360;2022-07-24T07:45:10;12.88;;;11.77;;
3095;SDS011;1558;42.700;23.360;2022-07-24T07:47:38;14.20;;;11.88;;
3095;SDS011;1558;42.700;23.360;2022-07-24T07:50:08;15.93;;;12.00;;
3095;SDS011;1558;42.700;23.360;2022-07-24T07:52:36;14.45;;;12.18;;
3095;SDS011;1558;42.700;23.360;2022-07-24T07:55:05;13.20;;;11.57;;
3095;SDS011;1558;42.700;23.360;2022-07-24T07:57:33;16.77;;;11.85;;
3095;SDS011;1558;42.700;23.360;2022-07-24T08:00:21;13.10;;;11.40;;
3095;SDS011;1558;42.700;23.360;2022-07-24T08:02:49;17.15;;;11.95;;
3095;SDS011;1558;42.700;23.360;2022-07-24T08:05:19;16.90;;;11.98;;
3095;SDS011;1558;42.700;23.360;2022-07-24T08:07:47;16.55;;;11.38;;
3095;SDS011;1558;42.700;23.360;2022-07-24T08:10:15;12.25;;;10.75;;
3095;SDS011;1558;42.700;23.360;2022-07-24T08:12:43;13.43;;;11.45;;
3095;SDS011;1558;42.700;23.360;2022-07-24T08:15:11;13.20;;;11.80;;
3095;SDS011;1558;42.700;23.360;2022-07-24T08:17:39;13.85;;;11.63;;
3095;SDS011;1558;42.700;23.360;2022-07-24T08:20:07;16.05;;;11.88;;
3095;SDS011;1558;42.700;23.360;2022-07-24T08:22:37;14.65;;;10.95;;
3095;SDS011;1558;42.700;23.360;2022-07-24T08:25:06;12.65;;;11.30;;
3095;SDS011;1558;42.700;23.360;2022-07-24T08:27:35;13.90;;;11.65;;
3095;SDS011;1558;42.700;23.360;2022-07-24T08:30:04;12.48;;;11.32;;
3095;SDS011;1558;42.700;23.360;2022-07-24T08:32:33;13.13;;;11.82;;
3095;SDS011;1558;42.700;23.360;2022-07-24T08:35:02;11.68;;;10.50;;
3095;SDS011;1558;42.700;23.360;2022-07-24T08:37:31;11.98;;;10.70;;
3095;SDS011;1558;42.700;23.360;2022-07-24T08:40:05;12.07;;;10.93;;
3095;SDS011;1558;42.700;23.360;2022-07-24T08:42:34;13.00;;;11.63;;
3095;SDS011;1558;42.700;23.360;2022-07-24T08:45:02;16.45;;;12.05;;
3095;SDS011;1558;42.700;23.360;2022-07-24T08:47:31;14.60;;;13.18;;
3095;SDS011;1558;42.700;23.360;2022-07-24T08:49:59;14.23;;;12.70;;
3095;SDS011;1558;42.700;23.360;2022-07-24T08:52:29;15.20;;;12.70;;
3095;SDS011;1558;42.700;23.360;2022-07-24T08:54:57;14.77;;;13.25;;
3095;SDS011;1558;42.700;23.360;2022-07-24T08:57:26;15.05;;;12.30;;
3095;SDS011;1558;42.700;23.360;2022-07-24T08:59:54;15.70;;;12.50;;
3095;SDS011;1558;42.700;23.360;2022-07-24T09:02:22;14.18;;;12.25;;
3095;SDS011;1558;42.700;23.360;2022-07-24T09:04:50;15.93;;;11.85;;
3095;SDS011;1558;42.700;23.360;2022-07-24T09:07:27;16.67;;;12.82;;
3095;SDS011;1558;42.700;23.360;2022-07-24T09:09:59;15.07;;;12.00;;
3095;SDS011;1558;42.700;23.360;2022-07-24T09:12:31;15.68;;;12.57;;
3095;SDS011;1558;42.700;23.360;2022-07-24T09:15:01;13.43;;;12.13;;
3095;SDS011;1558;42.700;23.360;2022-07-24T09:17:46;19.13;;;12.65;;
3095;SDS011;1558;42.700;23.360;2022-07-24T09:20:15;14.50;;;11.60;;
3095;SDS011;1558;42.700;23.360;2022-07-24T09:22:43;15.23;;;12.50;;
3095;SDS011;1558;42.700;23.360;2022-07-24T09:25:12;15.00;;;11.88;;
3095;SDS011;1558;42.700;23.360;2022-07-24T09:27:46;13.55;;;12.18;;
3095;SDS011;1558;42.700;23.360;2022-07-24T09:30:25;13.52;;;12.23;;
3095;SDS011;1558;42.700;23.360;2022-07-24T09:32:55;14.25;;;12.75;;
3095;SDS011;1558;42.700;23.360;2022-07-24T09:35:29;14.00;;;12.70;;
3095;SDS011;1558;42.700;23.360;2022-07-24T09:37:59;14.05;;;12.18;;
3095;SDS011;1558;42.700;23.360;2022-07-24T09:40:29;13.90;;;12.60;;
3095;SDS011;1558;42.700;23.360;2022-07-24T09:43:19;16.67;;;12.50;;
3095;SDS011;1558;42.700;23.360;2022-07-24T09:45:53;14.85;;;11.90;;
3095;SDS011;1558;42.700;23.360;2022-07-24T09:48:24;16.73;;;12.48;;
3095;SDS011;1558;42.700;23.360;2022-07-24T09:50:55;15.63;;;12.07;;
3095;SDS011;1558;42.700;23.360;2022-07-24T09:53:25;16.70;;;13.18;;
3095;SDS011;1558;42.700;23.360;2022-07-24T09:56:01;13.13;;;11.75;;
3095;SDS011;1558;42.700;23.360;2022-07-24T09:58:33;13.95;;;12.07;;
3095;SDS011;1558;42.700;23.360;2022-07-24T10:01:03;13.68;;;12.30;;
3095;SDS011;1558;42.700;23.360;2022-07-24T10:03:34;13.65;;;12.30;;
3095;SDS011;1558;42.700;23.360;2022-07-24T10:06:05;12.98;;;11.80;;
3095;SDS011;1558;42.700;23.360;2022-07-24T10:08:35;13.55;;;12.25;;
3095;SDS011;1558;42.700;23.360;2022-07-24T10:11:04;12.57;;;11.45;;
3095;SDS011;1558;42.700;23.360;2022-07-24T10:13:34;13.88;;;12.50;;
3095;SDS011;1558;42.700;23.360;2022-07-24T10:16:26;12.40;;;11.40;;
3095;SDS011;1558;42.700;23.360;2022-07-24T10:18:57;12.85;;;11.55;;
3095;SDS011;1558;42.700;23.360;2022-07-24T10:21:27;12.05;;;10.90;;
3095;SDS011;1558;42.700;23.360;2022-07-24T10:27:17;11.55;;;10.35;;
3095;SDS011;1558;42.700;23.360;2022-07-24T10:29:53;11.55;;;10.75;;
3095;SDS011;1558;42.700;23.360;2022-07-24T10:32:22;11.63;;;10.43;;
3095;SDS011;1558;42.700;23.360;2022-07-24T10:34:55;12.38;;;10.57;;
3095;SDS011;1558;42.700;23.360;2022-07-24T10:37:33;11.63;;;10.63;;
3095;SDS011;1558;42.700;23.360;2022-07-24T10:40:11;13.30;;;11.20;;
3095;SDS011;1558;42.700;23.360;2022-07-24T10:45:39;12.63;;;11.30;;
3095;SDS011;1558;42.700;23.360;2022-07-24T10:48:29;11.70;;;10.77;;
3095;SDS011;1558;42.700;23.360;2022-07-24T10:51:00;11.65;;;10.65;;
3095;SDS011;1558;42.700;23.360;2022-07-24T10:53:46;11.95;;;10.95;;
3095;SDS011;1558;42.700;23.360;2022-07-24T10:56:20;12.32;;;10.98;;
3095;SDS011;1558;42.700;23.360;2022-07-24T10:58:52;12.38;;;11.02;;
3095;SDS011;1558;42.700;23.360;2022-07-24T11:01:39;12.48;;;11.40;;
3095;SDS011;1558;42.700;23.360;2022-07-24T11:04:29;11.25;;;10.52;;
3095;SDS011;1558;42.700;23.360;2022-07-24T11:07:03;12.00;;;11.10;;
3095;SDS011;1558;42.700;23.360;2022-07-24T11:09:55;12.25;;;11.25;;
3095;SDS011;1558;42.700;23.360;2022-07-24T11:12:27;12.40;;;11.23;;
3095;SDS011;1558;42.700;23.360;2022-07-24T11:15:04;12.43;;;11.40;;
3095;SDS011;1558;42.700;23.360;2022-07-24T11:17:52;12.82;;;11.60;;
3095;SDS011;1558;42.700;23.360;2022-07-24T11:20:21;12.23;;;11.00;;
3095;SDS011;1558;42.700;23.360;2022-07-24T11:22:51;11.90;;;10.93;;
3095;SDS011;1558;42.700;23.360;2022-07-24T11:25:20;14.15;;;12.63;;
3095;SDS011;1558;42.700;23.360;2022-07-24T11:27:54;12.45;;;11.25;;
3095;SDS011;1558;42.700;23.360;2022-07-24T11:30:24;12.27;;;11.10;;
3095;SDS011;1558;42.700;23.360;2022-07-24T11:32:55;12.80;;;11.80;;
3095;SDS011;1558;42.700;23.360;2022-07-24T11:35:30;11.25;;;10.32;;
3095;SDS011;1558;42.700;23.360;2022-07-24T11:38:00;13.25;;;11.93;;
3095;SDS011;1558;42.700;23.360;2022-07-24T11:40:29;12.32;;;11.38;;
3095;SDS011;1558;42.700;23.360;2022-07-24T11:42:58;14.20;;;11.68;;
3095;SDS011;1558;42.700;23.360;2022-07-24T11:45:35;13.00;;;10.38;;
3095;SDS011;1558;42.700;23.360;2022-07-24T11:48:05;12.65;;;11.50;;
3095;SDS011;1558;42.700;23.360;2022-07-24T11:50:33;11.40;;;10.48;;
3095;SDS011;1558;42.700;23.360;2022-07-24T11:53:04;14.65;;;11.07;;
3095;SDS011;1558;42.700;23.360;2022-07-24T11:55:33;11.45;;;10.55;;
3095;SDS011;1558;42.700;23.360;2022-07-24T11:58:01;12.25;;;11.02;;
3095;SDS011;1558;42.700;23.360;2022-07-24T12:00:49;11.70;;;10.80;;
3095;SDS011;1558;42.700;23.360;2022-07-24T12:03:18;11.88;;;10.73;;
3095;SDS011;1558;42.700;23.360;2022-07-24T12:05:46;11.93;;;10.82;;
3095;SDS011;1558;42.700;23.360;2022-07-24T12:08:15;11.93;;;10.70;;
3095;SDS011;1558;42.700;23.360;2022-07-24T12:10:44;11.40;;;10.18;;
3095;SDS011;1558;42.700;23.360;2022-07-24T12:13:15;11.90;;;10.70;;
3095;SDS011;1558;42.700;23.360;2022-07-24T12:15:43;11.32;;;10.20;;
3095;SDS011;1558;42.700;23.360;2022-07-24T12:18:13;11.75;;;10.52;;
3095;SDS011;1558;42.700;23.360;2022-07-24T12:20:43;12.25;;;10.85;;
3095;SDS011;1558;42.700;23.360;2022-07-24T12:23:13;11.10;;;10.10;;
3095;SDS011;1558;42.700;23.360;2022-07-24T12:25:46;12.40;;;11.20;;
3095;SDS011;1558;42.700;23.360;2022-07-24T12:28:14;11.50;;;10.40;;
3095;SDS011;1558;42.700;23.360;2022-07-24T12:30:44;12.02;;;10.98;;
3095;SDS011;1558;42.700;23.360;2022-07-24T12:33:19;11.68;;;10.57;;
3095;SDS011;1558;42.700;23.360;2022-07-24T12:35:53;13.07;;;11.40;;
3095;SDS011;1558;42.700;23.360;2022-07-24T12:38:23;11.95;;;10.90;;
3095;SDS011;1558;42.700;23.360;2022-07-24T12:41:00;11.77;;;10.75;;
3095;SDS011;1558;42.700;23.360;2022-07-24T12:43:29;11.98;;;11.00;;
3095;SDS011;1558;42.700;23.360;2022-07-24T12:46:04;12.60;;;10.82;;
3095;SDS011;1558;42.700;23.360;2022-07-24T12:48:33;12.27;;;11.00;;
3095;SDS011;1558;42.700;23.360;2022-07-24T12:51:05;11.55;;;10.57;;
3095;SDS011;1558;42.700;23.360;2022-07-24T12:53:37;12.45;;;11.35;;
3095;SDS011;1558;42.700;23.360;2022-07-24T12:56:09;12.02;;;11.00;;
3095;SDS011;1558;42.700;23.360;2022-07-24T12:58:52;12.13;;;11.02;;
3095;SDS011;1558;42.700;23.360;2022-07-24T13:01:23;12.50;;;11.13;;
3095;SDS011;1558;42.700;23.360;2022-07-24T13:03:56;13.02;;;11.65;;
3095;SDS011;1558;42.700;23.360;2022-07-24T13:06:34;13.02;;;11.85;;
3095;SDS011;1558;42.700;23.360;2022-07-24T13:09:03;11.85;;;10.70;;
3095;SDS011;1558;42.700;23.360;2022-07-24T13:11:32;12.05;;;11.00;;
3095;SDS011;1558;42.700;23.360;2022-07-24T13:14:00;12.40;;;10.82;;
3095;SDS011;1558;42.700;23.360;2022-07-24T13:16:33;12.00;;;11.07;;
3095;SDS011;1558;42.700;23.360;2022-07-24T13:19:03;11.55;;;10.50;;
3095;SDS011;1558;42.700;23.360;2022-07-24T13:21:33;11.93;;;10.82;;
3095;SDS011;1558;42.700;23.360;2022-07-24T13:24:02;11.38;;;10.68;;
3095;SDS011;1558;42.700;23.360;2022-07-24T13:26:31;11.07;;;10.32;;
3095;SDS011;1558;42.700;23.360;2022-07-24T13:28:59;11.52;;;10.70;;
3095;SDS011;1558;42.700;23.360;2022-07-24T13:31:28;11.80;;;10.75;;
3095;SDS011;1558;42.700;23.360;2022-07-24T13:33:56;11.82;;;10.93;;
3095;SDS011;1558;42.700;23.360;2022-07-24T13:36:24;14.75;;;11.48;;
3095;SDS011;1558;42.700;23.360;2022-07-24T13:38:54;12.70;;;10.80;;
3095;SDS011;1558;42.700;23.360;2022-07-24T13:41:23;12.15;;;10.90;;
3095;SDS011;1558;42.700;23.360;2022-07-24T13:43:51;13.13;;;11.80;;
3095;SDS011;1558;42.700;23.360;2022-07-24T13:46:19;15.32;;;11.27;;
3095;SDS011;1558;42.700;23.360;2022-07-24T13:48:48;13.55;;;11.30;;
3095;SDS011;1558;42.700;23.360;2022-07-24T13:51:23;12.63;;;11.55;;
3095;SDS011;1558;42.700;23.360;2022-07-24T13:53:51;11.77;;;10.77;;
3095;SDS011;1558;42.700;23.360;2022-07-24T13:56:20;12.70;;;11.32;;
3095;SDS011;1558;42.700;23.360;2022-07-24T13:58:49;13.80;;;12.80;;
3095;SDS011;1558;42.700;23.360;2022-07-24T14:01:17;14.48;;;13.27;;
3095;SDS011;1558;42.700;23.360;2022-07-24T14:04:00;12.38;;;11.48;;
3095;SDS011;1558;42.700;23.360;2022-07-24T14:06:48;11.13;;;10.18;;
3095;SDS011;1558;42.700;23.360;2022-07-24T14:09:17;11.30;;;10.40;;
3095;SDS011;1558;42.700;23.360;2022-07-24T14:11:46;24.58;;;11.70;;
3095;SDS011;1558;42.700;23.360;2022-07-24T14:14:14;49.75;;;13.43;;
3095;SDS011;1558;42.700;23.360;2022-07-24T14:16:44;42.40;;;12.20;;
3095;SDS011;1558;42.700;23.360;2022-07-24T14:19:12;29.75;;;14.00;;
3095;SDS011;1558;42.700;23.360;2022-07-24T14:21:41;19.85;;;12.30;;
3095;SDS011;1558;42.700;23.360;2022-07-24T14:24:13;14.27;;;11.25;;
3095;SDS011;1558;42.700;23.360;2022-07-24T14:26:42;20.10;;;12.40;;
3095;SDS011;1558;42.700;23.360;2022-07-24T14:29:12;13.15;;;11.88;;
3095;SDS011;1558;42.700;23.360;2022-07-24T14:31:41;13.77;;;12.43;;
3095;SDS011;1558;42.700;23.360;2022-07-24T14:34:09;13.07;;;11.90;;
3095;SDS011;1558;42.700;23.360;2022-07-24T14:36:37;14.52;;;13.02;;
3095;SDS011;1558;42.700;23.360;2022-07-24T14:39:05;17.73;;;15.88;;
3095;SDS011;1558;42.700;23.360;2022-07-24T14:41:33;19.30;;;16.02;;
3095;SDS011;1558;42.700;23.360;2022-07-24T14:44:02;21.10;;;19.25;;
3095;SDS011;1558;42.700;23.360;2022-07-24T14:46:37;13.85;;;12.70;;
3095;SDS011;1558;42.700;23.360;2022-07-24T14:49:06;16.92;;;15.52;;
3095;SDS011;1558;42.700;23.360;2022-07-24T14:51:35;15.65;;;14.35;;
3095;SDS011;1558;42.700;23.360;2022-07-24T14:54:03;20.20;;;18.60;;
3095;SDS011;1558;42.700;23.360;2022-07-24T14:56:33;16.70;;;15.40;;
3095;SDS011;1558;42.700;23.360;2022-07-24T14:59:01;18.80;;;17.30;;